Cut Bank, MT

10:24 AM MST on December 21, 2014 (GMT -0700)
CG Ag Consulting | Change Station
CLOSE
Current Station
Personal Weather Station
Location: Cut Bank, MT
Elevation: 3789 ft
Nearby Weather Stations

Elev 3789 ft 48.70 °N, 112.32 °W | Updated 6 seconds ago

Clear
Clear
39.6 °F
Feels Like 30 °F
N
18.7
Wind Variable Wind from WNW
Gusts 26.0 mph

Today
High -- | Low -- °F
--% Chance of Precip.
Yesterday
High -- | Low -- °F
Precip. -- in
8:19 AM 4:35 PM
Waning Crescent, 0% visible
Pressure 29.34 in
Visibility 10.0 miles
Clouds Clear
Windchill 30 °F
Dew Point 32 °F
Humidity 70%
Rainfall 0.00 in
Snow Depth Not available.
UV 1 out of 12
Pollen .10 out of 12
Air Quality Not available.
Flu Activity Not available.
METAR KCTB 211656Z AUTO 26017KT 10SM CLR 04/M01 A2929 RMK AO2 PK WND 26029/1606 SLP935 T00441006

More Conditions Fewer Conditions

Pressure 29.34 in
Visibility 10.0 miles
Clouds Clear
Windchill 30 °F
Dew Point 32 °F
Humidity 70%
Rainfall 0.00 in
Snow Depth Not available.
UV 1 out of 12
Pollen .10 out of 12
Air Quality Not available.
Flu Activity Not available.
METAR KCTB 211656Z AUTO 26017KT 10SM CLR 04/M01 A2929 RMK AO2 PK WND 26029/1606 SLP935 T00441006

More Conditions Fewer Conditions

10-Day Weather Forecast

Almanac

Astronomy

Dec. 21, 2014 Rise Set
Actual Time
Civil Twilight
Nautical Twilight
Astronomical Twilight
Moon
Length of Visible Light
Length of Day
Tomorrow will be .
, % of the Moon is Illuminated

Today's Extremes

State Highs State Lows

Community

WunderPhotos

Upload Photos

1,779,436 photos uploaded!

WunderBlogs® & News

Nearby

Air Quality

  Air Quality AQ Index Pollutant
Not available.

Snow Depth

Station Depth Elevation

Earthquake Activity

City Distance Mag. Time & Date
Minimum magnitude displayed is 2.5.

Coastal Water Temperatures

Place Temperature

Nearby Weather Stations